createdAt,value
2022-12-06T00:01:10.762Z,19.47
2022-12-06T00:03:39.995Z,17.97
2022-12-06T00:06:10.091Z,18.73
2022-12-06T00:08:38.825Z,17.43
2022-12-06T00:11:09.922Z,19.10
2022-12-06T00:13:38.762Z,17.80
2022-12-06T00:16:10.183Z,18.67
2022-12-06T00:18:39.324Z,18.33
2022-12-06T00:21:09.333Z,17.27
2022-12-06T00:23:38.874Z,17.70
2022-12-06T00:26:08.199Z,16.53
2022-12-06T00:28:37.553Z,17.10
2022-12-06T00:31:07.525Z,16.50
2022-12-06T00:33:37.901Z,15.73
2022-12-06T00:36:08.047Z,16.20
2022-12-06T00:38:36.525Z,17.97
2022-12-06T00:41:06.677Z,16.00
2022-12-06T00:43:35.625Z,16.40
2022-12-06T00:46:04.605Z,15.80
2022-12-06T00:48:32.900Z,16.40
2022-12-06T00:51:02.397Z,15.70
2022-12-06T00:53:30.977Z,15.87
2022-12-06T00:55:59.336Z,16.43
2022-12-06T00:58:27.527Z,14.87
2022-12-06T01:00:55.739Z,15.90
2022-12-06T01:03:24.216Z,16.10
2022-12-06T01:05:52.636Z,15.73
2022-12-06T01:08:22.217Z,15.13
2022-12-06T01:10:54.700Z,14.53
2022-12-06T01:13:22.882Z,13.03
2022-12-06T01:15:51.234Z,14.30
2022-12-06T01:18:19.347Z,13.80
2022-12-06T01:20:47.640Z,14.00
2022-12-06T01:23:16.408Z,14.43
2022-12-06T01:25:52.272Z,13.77
2022-12-06T01:28:20.449Z,13.83
2022-12-06T01:30:48.604Z,13.53
2022-12-06T01:33:16.815Z,13.40
2022-12-06T01:35:44.949Z,13.80
2022-12-06T01:38:13.622Z,12.87
2022-12-06T01:40:43.277Z,13.53
2022-12-06T01:43:37.767Z,12.23
2022-12-06T01:46:14.107Z,13.23
2022-12-06T01:48:42.634Z,12.73
2022-12-06T01:51:13.408Z,13.33
2022-12-06T01:53:41.890Z,13.30
2022-12-06T01:56:10.244Z,12.70
2022-12-06T01:58:42.722Z,12.80
2022-12-06T02:01:11.377Z,12.47
2022-12-06T02:03:39.749Z,12.67
2022-12-06T02:06:09.677Z,11.23
2022-12-06T02:08:38.249Z,11.47
2022-12-06T02:11:06.624Z,12.40
2022-12-06T02:13:35.531Z,11.67
2022-12-06T02:16:13.310Z,12.60
2022-12-06T02:18:46.454Z,11.57
2022-12-06T02:21:17.766Z,12.60
2022-12-06T02:24:08.952Z,12.57
2022-12-06T02:26:39.181Z,14.03
2022-12-06T02:29:30.121Z,12.90
2022-12-06T02:32:01.048Z,11.47
2022-12-06T02:34:32.968Z,11.60
2022-12-06T02:37:04.276Z,12.57
2022-12-06T02:39:35.640Z,11.30
2022-12-06T02:42:06.500Z,9.97
2022-12-06T02:44:37.902Z,10.73
2022-12-06T02:47:09.648Z,10.50
2022-12-06T02:49:39.012Z,10.43
2022-12-06T02:52:07.291Z,10.03
2022-12-06T02:54:35.402Z,10.03
2022-12-06T02:57:03.489Z,9.80
2022-12-06T02:59:31.622Z,10.57
2022-12-06T03:02:01.599Z,10.13
2022-12-06T03:04:46.298Z,10.40
2022-12-06T03:07:25.456Z,10.27
2022-12-06T03:10:11.328Z,10.43
2022-12-06T03:12:41.967Z,11.17
2022-12-06T03:15:15.288Z,9.80
2022-12-06T03:17:47.452Z,10.53
2022-12-06T03:20:20.958Z,11.50
2022-12-06T03:22:52.316Z,10.77
2022-12-06T03:25:20.774Z,10.67
2022-12-06T03:27:49.796Z,10.83
2022-12-06T03:30:18.009Z,10.20
2022-12-06T03:32:55.422Z,11.03
2022-12-06T03:35:27.990Z,10.80
2022-12-06T03:38:00.243Z,10.87
2022-12-06T03:40:30.293Z,10.20
2022-12-06T03:43:00.145Z,10.93
2022-12-06T03:45:31.370Z,10.57
2022-12-06T03:48:06.014Z,10.57
2022-12-06T03:50:39.441Z,11.17
2022-12-06T03:53:07.755Z,11.33
2022-12-06T03:55:37.112Z,12.17
2022-12-06T03:58:09.851Z,11.47
2022-12-06T04:00:38.031Z,11.63
2022-12-06T04:03:06.014Z,11.47
2022-12-06T04:05:35.789Z,11.90
2022-12-06T04:08:04.103Z,11.20
2022-12-06T04:10:32.273Z,11.13
2022-12-06T04:13:02.026Z,11.03
2022-12-06T04:15:32.044Z,11.73
2022-12-06T04:18:13.352Z,11.40
2022-12-06T04:21:02.743Z,12.13
2022-12-06T04:23:32.789Z,12.33
2022-12-06T04:26:01.100Z,13.20
2022-12-06T04:28:46.345Z,12.30
2022-12-06T04:31:31.874Z,12.47
2022-12-06T04:34:17.317Z,13.40
2022-12-06T04:37:04.707Z,13.70
2022-12-06T04:39:33.117Z,13.17
2022-12-06T04:42:18.994Z,13.70
2022-12-06T04:44:47.281Z,13.03
2022-12-06T04:47:15.645Z,14.33
2022-12-06T04:49:43.755Z,14.10
2022-12-06T04:52:13.428Z,12.30
2022-12-06T04:54:41.826Z,12.97
2022-12-06T04:57:11.985Z,12.33
2022-12-06T04:59:41.419Z,13.13
2022-12-06T05:02:11.794Z,13.00
2022-12-06T05:04:40.021Z,12.87
2022-12-06T05:07:08.212Z,12.47
2022-12-06T05:09:37.676Z,13.27
2022-12-06T05:12:06.152Z,13.07
2022-12-06T05:14:34.268Z,12.77
2022-12-06T05:17:02.950Z,13.17
2022-12-06T05:19:31.722Z,13.37
2022-12-06T05:21:59.947Z,14.50
2022-12-06T05:24:28.066Z,12.93
2022-12-06T05:26:57.588Z,13.43
2022-12-06T05:29:25.722Z,14.40
2022-12-06T05:31:53.817Z,15.57
2022-12-06T05:34:22.064Z,15.13
2022-12-06T05:36:50.199Z,15.83
2022-12-06T05:39:18.379Z,16.03
2022-12-06T05:41:46.641Z,16.37
2022-12-06T05:44:16.327Z,16.30
2022-12-06T05:46:44.498Z,16.03
2022-12-06T05:49:13.399Z,16.70
2022-12-06T05:51:41.536Z,16.70
2022-12-06T05:54:09.609Z,17.30
2022-12-06T05:56:37.896Z,16.87
2022-12-06T05:59:05.991Z,15.07
2022-12-06T06:01:35.502Z,16.90
2022-12-06T06:04:03.700Z,16.60
2022-12-06T06:06:32.090Z,16.93
2022-12-06T06:09:00.312Z,15.63
2022-12-06T06:11:28.747Z,16.93
2022-12-06T06:13:56.937Z,17.17
2022-12-06T06:16:25.270Z,15.97
2022-12-06T06:18:55.163Z,17.90
2022-12-06T06:21:23.668Z,18.20
2022-12-06T06:23:51.921Z,17.33
2022-12-06T06:26:20.302Z,16.63
2022-12-06T06:28:48.530Z,15.87
2022-12-06T06:31:17.201Z,15.63
2022-12-06T06:33:45.509Z,16.67
2022-12-06T06:36:15.406Z,15.93
2022-12-06T06:38:43.887Z,15.33
2022-12-06T06:41:12.350Z,15.60
2022-12-06T06:43:40.920Z,15.67
2022-12-06T06:46:09.660Z,15.67
2022-12-06T06:48:39.744Z,15.43
2022-12-06T06:51:09.951Z,15.50
2022-12-06T06:53:40.378Z,14.40
2022-12-06T06:56:10.483Z,14.83
2022-12-06T06:58:38.998Z,14.80
2022-12-06T07:01:09.178Z,14.00
2022-12-06T07:03:37.366Z,13.70
2022-12-06T07:06:08.458Z,14.40
2022-12-06T07:08:36.774Z,13.53
2022-12-06T07:11:06.700Z,13.60
2022-12-06T07:13:35.232Z,13.37
2022-12-06T07:16:04.796Z,12.70
2022-12-06T07:18:32.937Z,12.83
2022-12-06T07:21:03.835Z,13.57
2022-12-06T07:23:33.145Z,12.83
2022-12-06T07:26:02.917Z,12.97
2022-12-06T07:28:32.514Z,14.77
2022-12-06T07:31:09.740Z,13.67
2022-12-06T07:33:38.098Z,13.50
2022-12-06T07:36:12.493Z,13.37
2022-12-06T07:38:42.173Z,12.80
2022-12-06T07:41:33.006Z,13.20
2022-12-06T07:44:19.987Z,12.77
2022-12-06T07:46:48.313Z,13.30
2022-12-06T07:49:17.665Z,13.23
2022-12-06T07:51:46.713Z,12.90
2022-12-06T07:54:15.217Z,13.70
2022-12-06T07:56:44.223Z,13.07
2022-12-06T07:59:17.068Z,13.17
2022-12-06T08:01:45.603Z,13.87
2022-12-06T08:04:17.235Z,15.13
2022-12-06T08:06:46.001Z,13.03
2022-12-06T08:09:14.374Z,13.87
2022-12-06T08:11:42.734Z,13.83
2022-12-06T08:14:14.689Z,15.37
2022-12-06T08:16:43.287Z,14.87
2022-12-06T08:19:14.758Z,14.33
2022-12-06T08:21:42.981Z,13.07
2022-12-06T08:24:11.508Z,13.57
2022-12-06T08:26:39.801Z,13.17
2022-12-06T08:29:09.441Z,14.33
2022-12-06T08:31:41.231Z,13.17
2022-12-06T08:34:09.356Z,15.83
2022-12-06T08:36:39.509Z,14.90
2022-12-06T08:39:09.043Z,14.27
2022-12-06T08:42:25.048Z,15.37
2022-12-06T08:44:56.603Z,15.83
2022-12-06T08:47:36.895Z,16.07
2022-12-06T08:50:18.667Z,15.57
2022-12-06T08:52:52.835Z,15.30
2022-12-06T08:55:40.657Z,16.50
2022-12-06T08:58:09.616Z,16.10
2022-12-06T09:00:45.759Z,16.23
2022-12-06T09:03:16.218Z,17.13
2022-12-06T09:05:44.961Z,17.07
2022-12-06T09:08:19.463Z,17.27
2022-12-06T09:10:52.007Z,17.23
2022-12-06T09:13:22.092Z,17.53
2022-12-06T09:15:52.243Z,18.23
2022-12-06T09:18:22.044Z,17.77
2022-12-06T09:20:50.619Z,18.33
2022-12-06T09:23:18.865Z,18.07
2022-12-06T09:25:47.022Z,18.80
2022-12-06T09:28:15.425Z,19.00
2022-12-06T09:30:44.009Z,18.20
2022-12-06T09:33:15.042Z,17.87
2022-12-06T09:35:44.993Z,17.53
2022-12-06T09:38:15.099Z,18.30
2022-12-06T09:40:52.845Z,19.67
2022-12-06T09:43:28.803Z,18.47
2022-12-06T09:46:12.091Z,17.73
2022-12-06T09:49:04.541Z,17.30
2022-12-06T09:51:45.575Z,16.80
2022-12-06T09:54:22.626Z,17.20
2022-12-06T09:56:54.341Z,16.07
2022-12-06T09:59:29.324Z,16.13
2022-12-06T10:02:13.909Z,15.47
2022-12-06T10:04:51.948Z,15.30
2022-12-06T10:07:27.808Z,13.63
2022-12-06T10:10:05.896Z,12.60
2022-12-06T10:12:44.506Z,12.97
2022-12-06T10:15:25.197Z,12.70
2022-12-06T10:18:08.173Z,12.57
2022-12-06T10:20:43.952Z,12.63
2022-12-06T10:23:26.064Z,12.23
2022-12-06T10:25:59.371Z,13.10
2022-12-06T10:28:33.801Z,13.50
2022-12-06T10:31:10.184Z,12.70
2022-12-06T10:33:43.875Z,12.90
2022-12-06T10:36:13.592Z,12.50
2022-12-06T10:38:46.825Z,12.60
2022-12-06T10:41:21.181Z,13.87
2022-12-06T10:43:53.840Z,12.67
2022-12-06T10:46:45.033Z,14.37
2022-12-06T10:49:20.749Z,13.33
2022-12-06T10:51:51.791Z,13.60
2022-12-06T10:54:26.954Z,14.07
2022-12-06T10:56:57.166Z,13.60
2022-12-06T10:59:29.815Z,13.63
2022-12-06T11:02:01.224Z,12.37
2022-12-06T11:04:33.888Z,13.80
2022-12-06T11:07:05.498Z,12.10
2022-12-06T11:09:40.593Z,11.60
2022-12-06T11:12:25.257Z,12.00
2022-12-06T11:15:01.796Z,12.80
2022-12-06T11:17:35.842Z,12.90
2022-12-06T11:20:08.298Z,12.70
2022-12-06T11:22:41.110Z,12.47
2022-12-06T11:25:15.883Z,12.60
2022-12-06T11:27:48.122Z,12.03
2022-12-06T11:30:20.189Z,12.70
2022-12-06T11:32:51.720Z,13.50
2022-12-06T11:35:22.993Z,13.40
2022-12-06T11:37:54.785Z,13.63
2022-12-06T11:40:28.105Z,14.57
2022-12-06T11:42:57.680Z,14.90
2022-12-06T11:45:27.638Z,16.80
2022-12-06T11:47:56.447Z,16.23
2022-12-06T11:50:26.572Z,15.83
2022-12-06T11:52:58.674Z,16.50
2022-12-06T11:55:31.388Z,16.43
2022-12-06T11:58:03.656Z,16.43
2022-12-06T12:00:31.803Z,15.43
2022-12-06T12:03:00.066Z,16.43
2022-12-06T12:05:39.621Z,15.83
2022-12-06T12:08:11.183Z,15.40
2022-12-06T12:10:41.841Z,15.37
2022-12-06T12:13:37.476Z,15.97
2022-12-06T12:16:22.268Z,15.97
2022-12-06T12:18:53.708Z,15.13
2022-12-06T12:21:35.707Z,14.90
2022-12-06T12:24:05.054Z,14.47
2022-12-06T12:26:40.410Z,15.67
2022-12-06T12:29:20.045Z,14.23
2022-12-06T12:31:53.587Z,14.30
2022-12-06T12:34:23.165Z,15.13
2022-12-06T12:36:52.866Z,14.70
2022-12-06T12:39:28.245Z,13.57
2022-12-06T12:41:58.045Z,14.33
2022-12-06T12:44:37.506Z,13.97
2022-12-06T12:47:17.560Z,14.57
2022-12-06T12:50:01.009Z,13.53
2022-12-06T12:52:32.601Z,14.43
2022-12-06T12:55:14.459Z,13.30
2022-12-06T12:57:46.323Z,13.20
2022-12-06T13:00:16.772Z,14.10
2022-12-06T13:02:49.318Z,13.13
2022-12-06T13:05:45.057Z,13.20
2022-12-06T13:08:14.955Z,12.17
2022-12-06T13:10:48.255Z,12.37
2022-12-06T13:13:20.276Z,13.37
2022-12-06T13:16:05.845Z,12.70
2022-12-06T13:18:40.620Z,12.00
2022-12-06T13:21:15.796Z,12.67
2022-12-06T13:23:51.811Z,10.87
2022-12-06T13:26:25.864Z,10.00
2022-12-06T13:28:59.475Z,8.73
2022-12-06T13:31:31.241Z,9.47
2022-12-06T13:34:01.892Z,8.00
2022-12-06T13:36:33.024Z,8.57
2022-12-06T13:39:33.782Z,8.00
2022-12-06T13:42:21.066Z,7.90
2022-12-06T13:44:56.640Z,8.00
2022-12-06T13:47:51.484Z,8.00
2022-12-06T13:50:53.163Z,7.90
2022-12-06T13:53:22.279Z,8.00
2022-12-06T13:55:58.924Z,8.90
2022-12-06T13:58:59.490Z,7.97
2022-12-06T14:01:41.860Z,8.07
2022-12-06T14:07:03.102Z,7.67
2022-12-06T14:09:38.983Z,8.40
2022-12-06T14:12:17.944Z,8.37
2022-12-06T14:14:56.396Z,8.03
2022-12-06T14:17:59.810Z,8.77
2022-12-06T14:20:21.435Z,9.37
2022-12-06T14:22:49.805Z,10.43
2022-12-06T14:25:20.719Z,13.77
2022-12-06T14:27:51.546Z,11.23
2022-12-06T14:30:25.966Z,12.17
2022-12-06T14:32:57.477Z,9.87
2022-12-06T14:35:27.988Z,11.27
2022-12-06T14:37:58.804Z,9.93
2022-12-06T14:40:45.853Z,10.17
2022-12-06T14:43:16.956Z,10.03
2022-12-06T14:45:45.930Z,9.17
2022-12-06T14:48:16.339Z,9.67
2022-12-06T14:50:45.410Z,10.23
2022-12-06T14:53:15.856Z,9.93
2022-12-06T14:55:54.725Z,9.23
2022-12-06T14:58:25.492Z,9.10
2022-12-06T15:00:55.456Z,8.80
2022-12-06T15:03:29.137Z,8.40
2022-12-06T15:06:16.005Z,8.90
2022-12-06T15:08:48.120Z,9.40
2022-12-06T15:11:45.957Z,9.30
2022-12-06T15:14:16.602Z,9.33
2022-12-06T15:16:47.352Z,10.10
2022-12-06T15:19:19.570Z,10.20
2022-12-06T15:21:52.533Z,10.27
2022-12-06T15:24:25.631Z,9.97
2022-12-06T15:26:54.220Z,10.00
2022-12-06T15:29:23.041Z,9.33
2022-12-06T15:31:53.573Z,8.77
2022-12-06T15:34:31.819Z,9.03
2022-12-06T15:37:36.941Z,10.50
2022-12-06T15:39:50.085Z,9.57
2022-12-06T15:42:19.510Z,9.30
2022-12-06T15:44:51.045Z,9.73
2022-12-06T15:47:20.003Z,10.10
2022-12-06T15:49:51.773Z,9.97
2022-12-06T15:52:23.075Z,10.87
2022-12-06T15:54:52.018Z,10.83
2022-12-06T15:57:20.196Z,10.27
2022-12-06T15:59:49.631Z,10.53
2022-12-06T16:02:19.534Z,10.00
2022-12-06T16:04:51.009Z,8.90
2022-12-06T16:07:19.727Z,10.30
2022-12-06T16:09:48.338Z,10.20
2022-12-06T16:12:16.501Z,10.77
2022-12-06T16:14:44.518Z,11.23
2022-12-06T16:17:12.705Z,11.93
2022-12-06T16:19:57.980Z,10.80
2022-12-06T16:22:41.438Z,11.03
2022-12-06T16:25:11.114Z,12.07
2022-12-06T16:27:40.213Z,12.67
2022-12-06T16:30:11.229Z,12.03
2022-12-06T16:32:39.472Z,14.47
2022-12-06T16:35:08.187Z,14.77
2022-12-06T16:37:38.577Z,12.90
2022-12-06T16:40:08.493Z,13.47
2022-12-06T16:42:36.987Z,11.47
2022-12-06T16:45:47.979Z,12.50
2022-12-06T16:48:23.821Z,12.60
2022-12-06T16:50:52.080Z,12.77
2022-12-06T16:53:22.355Z,12.83
2022-12-06T16:55:50.559Z,12.70
2022-12-06T16:58:18.704Z,11.87
2022-12-06T17:00:46.921Z,11.63
2022-12-06T17:03:15.040Z,12.17
2022-12-06T17:05:43.316Z,11.87
2022-12-06T17:08:12.041Z,11.43
2022-12-06T17:10:42.448Z,12.73
2022-12-06T17:13:13.597Z,11.37
2022-12-06T17:15:43.441Z,12.50
2022-12-06T17:18:11.940Z,12.87
2022-12-06T17:20:40.211Z,13.60
2022-12-06T17:23:08.280Z,12.90
2022-12-06T17:25:36.876Z,13.10
2022-12-06T17:28:06.523Z,13.57
2022-12-06T17:30:34.713Z,13.40
2022-12-06T17:33:02.882Z,13.47
2022-12-06T17:35:32.291Z,13.07
2022-12-06T17:38:01.102Z,14.43
2022-12-06T17:40:29.241Z,14.07
2022-12-06T17:43:02.265Z,13.70
2022-12-06T17:45:33.212Z,14.87
2022-12-06T17:48:01.581Z,16.77
2022-12-06T17:50:29.855Z,15.37
2022-12-06T17:52:57.937Z,16.50
2022-12-06T17:55:27.273Z,15.97
2022-12-06T17:57:55.606Z,15.77
2022-12-06T18:00:24.283Z,16.07
2022-12-06T18:02:56.405Z,15.77
2022-12-06T18:05:24.838Z,14.40
2022-12-06T18:07:53.245Z,15.47
2022-12-06T18:10:21.667Z,15.50
2022-12-06T18:12:49.984Z,14.90
2022-12-06T18:15:35.537Z,16.00
2022-12-06T18:18:06.348Z,16.67
2022-12-06T18:20:34.638Z,16.87
2022-12-06T18:23:03.651Z,16.57
2022-12-06T18:25:33.757Z,16.73
2022-12-06T18:28:02.804Z,16.53
2022-12-06T18:30:32.382Z,16.77
2022-12-06T18:33:01.911Z,17.40
2022-12-06T18:35:31.713Z,17.77
2022-12-06T18:38:02.717Z,17.17
2022-12-06T18:40:32.946Z,16.67
2022-12-06T18:43:01.417Z,16.23
2022-12-06T18:45:29.847Z,16.60
2022-12-06T18:47:58.350Z,16.63
2022-12-06T18:50:27.179Z,17.23
2022-12-06T18:52:57.035Z,17.07
2022-12-06T18:55:25.759Z,15.37
2022-12-06T18:57:54.190Z,14.17
2022-12-06T19:00:23.170Z,14.50
2022-12-06T19:02:51.566Z,14.87
2022-12-06T19:05:33.245Z,15.53
2022-12-06T19:08:18.957Z,20.73
2022-12-06T19:10:47.379Z,22.07
2022-12-06T19:13:15.945Z,17.83
2022-12-06T19:15:45.060Z,15.40
2022-12-06T19:18:13.900Z,14.10
2022-12-06T19:20:42.277Z,14.90
2022-12-06T19:23:13.590Z,14.93
2022-12-06T19:25:43.452Z,15.20
2022-12-06T19:28:12.936Z,14.60
2022-12-06T19:30:43.288Z,14.23
2022-12-06T19:33:11.799Z,14.50
2022-12-06T19:35:40.210Z,14.53
2022-12-06T19:38:08.838Z,15.23
2022-12-06T19:40:43.268Z,15.10
2022-12-06T19:43:29.563Z,14.50
2022-12-06T19:45:58.058Z,15.00
2022-12-06T19:48:26.498Z,15.57
2022-12-06T19:50:54.860Z,15.17
2022-12-06T19:53:23.354Z,14.97
2022-12-06T19:55:53.398Z,16.30
2022-12-06T19:58:23.853Z,15.60
2022-12-06T20:00:52.030Z,15.87
2022-12-06T20:03:20.168Z,15.10
2022-12-06T20:05:48.465Z,14.80
2022-12-06T20:08:17.258Z,15.30
2022-12-06T20:10:45.608Z,15.03
2022-12-06T20:13:15.650Z,15.00
2022-12-06T20:15:44.386Z,14.93
2022-12-06T20:18:12.744Z,14.83
2022-12-06T20:20:41.013Z,14.97
2022-12-06T20:23:10.710Z,14.97
2022-12-06T20:25:42.136Z,14.70
2022-12-06T20:28:13.573Z,14.80
2022-12-06T20:30:44.878Z,13.70
2022-12-06T20:33:14.155Z,14.77
2022-12-06T20:35:43.985Z,14.73
2022-12-06T20:38:16.769Z,15.13
2022-12-06T20:40:46.950Z,15.43
2022-12-06T20:43:17.351Z,14.50
2022-12-06T20:45:49.328Z,13.83
2022-12-06T20:48:19.193Z,13.70
2022-12-06T20:50:49.635Z,12.83
2022-12-06T20:53:19.580Z,13.50
2022-12-06T20:55:50.138Z,13.83
2022-12-06T20:58:20.377Z,14.43
2022-12-06T21:00:51.641Z,12.93
2022-12-06T21:03:20.874Z,13.30
2022-12-06T21:05:55.109Z,13.70
2022-12-06T21:08:23.837Z,13.87
2022-12-06T21:11:21.154Z,13.93
2022-12-06T21:13:41.834Z,13.50
2022-12-06T21:16:14.351Z,13.33
2022-12-06T21:18:43.305Z,14.73
2022-12-06T21:21:12.090Z,13.37
2022-12-06T21:23:40.911Z,14.07
2022-12-06T21:26:09.174Z,13.63
2022-12-06T21:28:37.670Z,13.50
2022-12-06T21:31:06.184Z,14.73
2022-12-06T21:33:35.748Z,14.70
2022-12-06T21:36:05.464Z,13.43
2022-12-06T21:38:36.871Z,13.57
2022-12-06T21:41:08.803Z,14.30
2022-12-06T21:43:37.465Z,13.57
2022-12-06T21:46:08.192Z,13.17
2022-12-06T21:48:41.120Z,12.70
2022-12-06T21:51:12.150Z,13.43
2022-12-06T21:53:41.734Z,12.60
2022-12-06T21:56:11.832Z,13.20
2022-12-06T21:58:40.198Z,13.43
2022-12-06T22:01:10.657Z,13.37
2022-12-06T22:03:41.084Z,13.30
2022-12-06T22:06:10.701Z,13.43
2022-12-06T22:08:41.068Z,12.40
2022-12-06T22:11:12.318Z,12.80
2022-12-06T22:13:41.015Z,13.63
2022-12-06T22:16:11.086Z,13.47
2022-12-06T22:18:45.555Z,12.77
2022-12-06T22:21:16.400Z,14.07
2022-12-06T22:23:46.275Z,13.20
2022-12-06T22:26:16.180Z,13.20
2022-12-06T22:28:44.786Z,13.30
2022-12-06T22:31:14.915Z,14.13
2022-12-06T22:33:44.718Z,14.30
2022-12-06T22:36:13.529Z,14.17
2022-12-06T22:38:41.779Z,15.03
2022-12-06T22:41:10.493Z,14.47
2022-12-06T22:43:39.042Z,14.83
2022-12-06T22:46:09.054Z,14.90
2022-12-06T22:48:37.620Z,14.53
2022-12-06T22:51:12.276Z,14.63
2022-12-06T22:53:41.354Z,14.47
2022-12-06T22:56:10.185Z,14.10
2022-12-06T22:58:39.055Z,15.43
2022-12-06T23:01:16.507Z,16.33
2022-12-06T23:03:46.380Z,15.57
2022-12-06T23:06:17.309Z,14.27
2022-12-06T23:08:45.876Z,15.30
2022-12-06T23:11:19.785Z,14.80
2022-12-06T23:13:48.692Z,16.17
2022-12-06T23:16:20.109Z,16.03
2022-12-06T23:18:48.655Z,16.57
2022-12-06T23:21:19.497Z,16.30
2022-12-06T23:23:49.157Z,17.20
2022-12-06T23:26:18.959Z,18.27
2022-12-06T23:28:47.634Z,16.53
2022-12-06T23:31:17.424Z,18.07
2022-12-06T23:33:46.460Z,18.63
2022-12-06T23:36:16.401Z,19.07
2022-12-06T23:38:51.210Z,18.63
2022-12-06T23:41:21.254Z,18.97
2022-12-06T23:43:49.939Z,19.50
2022-12-06T23:46:22.810Z,20.33
2022-12-06T23:48:54.029Z,20.40
2022-12-06T23:51:23.755Z,21.37
2022-12-06T23:53:54.887Z,21.20
2022-12-06T23:56:23.776Z,21.93
2022-12-06T23:58:55.031Z,20.80
